Time;durP1;ratioP1;P1;durP2;ratioP2;P2;SDS_P1;SDS_P2;PMS_P1;PMS_P2;Temp;Humidity;BMP_temperature;BMP_pressure;BME280_temperature;BME280_humidity;BME280_pressure;Samples;Min_cycle;Max_cycle;Signal;HPM_P1;HPM_P2
2022/03/28 00:22:29;;;;;;;3.08;1.70;;;;;;;;;;4431163;29;20111;-57
2022/03/28 00:24:55;;;;;;;1.77;1.60;;;;;;;;;;4143428;34;20452;-60
2022/03/28 00:27:21;;;;;;;2.85;1.70;;;;;;;;;;4133136;34;20123;-60
2022/03/28 00:29:47;;;;;;;2.37;1.77;;;;;;;;;;4145750;34;20150;-59
2022/03/28 00:32:13;;;;;;;4.53;1.83;;;;;;;;;;4143345;34;20087;-62
2022/03/28 00:34:40;;;;;;;2.03;1.80;;;;;;;;;;4136964;34;20092;-62
2022/03/28 00:37:07;;;;;;;3.33;1.95;;;;;;;;;;4136726;34;20909;-62
2022/03/28 00:39:33;;;;;;;2.78;2.05;;;;;;;;;;4136900;34;20099;-62
2022/03/28 00:41:59;;;;;;;3.05;1.80;;;;;;;;;;4123772;34;20119;-62
2022/03/28 00:44:25;;;;;;;3.12;1.73;;;;;;;;;;4122277;34;20118;-62
2022/03/28 00:46:51;;;;;;;2.50;1.70;;;;;;;;;;4121752;34;20480;-62
2022/03/28 00:49:17;;;;;;;1.98;1.70;;;;;;;;;;4123023;34;20192;-62
2022/03/28 00:51:43;;;;;;;2.30;1.62;;;;;;;;;;4125066;34;20206;-60
2022/03/28 00:54:09;;;;;;;2.62;1.60;;;;;;;;;;4146068;34;20119;-60
2022/03/28 00:56:37;;;;;;;3.37;1.50;;;;;;;;;;4124157;34;20125;-60
2022/03/28 00:59:04;;;;;;;1.73;1.48;;;;;;;;;;4124805;34;20102;-60
2022/03/28 01:01:30;;;;;;;1.98;1.42;;;;;;;;;;4121784;34;20108;-60
2022/03/28 01:03:56;;;;;;;3.40;1.50;;;;;;;;;;4123549;34;20111;-60
2022/03/28 01:06:23;;;;;;;1.92;1.73;;;;;;;;;;4123286;34;20567;-60
2022/03/28 01:08:49;;;;;;;2.25;1.73;;;;;;;;;;4121843;34;20124;-60
2022/03/28 01:11:17;;;;;;;3.85;2.10;;;;;;;;;;4123023;34;20460;-62
2022/03/28 01:13:44;;;;;;;4.00;2.55;;;;;;;;;;4123354;34;20617;-62
2022/03/28 01:16:10;;;;;;;5.07;3.00;;;;;;;;;;4110728;34;20182;-62
2022/03/28 01:18:36;;;;;;;6.22;4.18;;;;;;;;;;4123076;34;20120;-62
2022/03/28 01:21:03;;;;;;;4.05;2.70;;;;;;;;;;4122943;34;20205;-62
2022/03/28 01:23:30;;;;;;;6.35;2.37;;;;;;;;;;4124652;34;20131;-62
2022/03/28 01:25:56;;;;;;;3.50;1.90;;;;;;;;;;4124225;34;20584;-63
2022/03/28 01:28:25;;;;;;;2.60;1.48;;;;;;;;;;4111500;34;20108;-62
2022/03/28 01:30:53;;;;;;;1.77;1.40;;;;;;;;;;4123169;34;20201;-62
2022/03/28 01:33:18;;;;;;;2.65;1.65;;;;;;;;;;4122720;34;20106;-62
2022/03/28 01:35:44;;;;;;;1.92;1.50;;;;;;;;;;4122705;34;20099;-62
2022/03/28 01:38:15;;;;;;;2.70;1.50;;;;;;;;;;4122726;34;20211;-63
2022/03/28 01:40:47;;;;;;;1.50;1.40;;;;;;;;;;4123188;34;20084;-63
2022/03/28 01:43:13;;;;;;;1.55;1.40;;;;;;;;;;4121465;34;20429;-62
2022/03/28 01:45:39;;;;;;;1.50;1.40;;;;;;;;;;4122926;34;20126;-62
2022/03/28 01:48:06;;;;;;;1.30;1.20;;;;;;;;;;4110206;34;20185;-62
2022/03/28 01:50:33;;;;;;;1.40;1.30;;;;;;;;;;4122996;34;20096;-63
2022/03/28 01:52:59;;;;;;;2.05;1.40;;;;;;;;;;4138213;34;20685;-62
2022/03/28 01:55:25;;;;;;;1.20;1.20;;;;;;;;;;4149568;34;20191;-62
2022/03/28 01:57:52;;;;;;;2.35;1.30;;;;;;;;;;4133724;34;20199;-62
2022/03/28 02:00:20;;;;;;;1.65;1.50;;;;;;;;;;4136134;34;20457;-62
2022/03/28 02:02:47;;;;;;;2.75;1.50;;;;;;;;;;4136404;34;20104;-62
2022/03/28 02:05:14;;;;;;;1.50;1.40;;;;;;;;;;4136209;34;20430;-62
2022/03/28 02:07:42;;;;;;;1.90;1.33;;;;;;;;;;4134755;34;20104;-61
2022/03/28 02:10:09;;;;;;;1.30;1.20;;;;;;;;;;4136491;34;20119;-63
2022/03/28 02:12:36;;;;;;;3.70;1.33;;;;;;;;;;4136402;34;20187;-62
2022/03/28 02:15:02;;;;;;;1.75;1.20;;;;;;;;;;4123560;34;20127;-62
2022/03/28 02:17:30;;;;;;;1.50;1.37;;;;;;;;;;4123001;34;20139;-62
2022/03/28 02:19:56;;;;;;;2.50;1.30;;;;;;;;;;4136041;34;20502;-63
2022/03/28 02:22:22;;;;;;;1.70;1.60;;;;;;;;;;4122930;34;20103;-63
2022/03/28 02:24:48;;;;;;;2.25;1.40;;;;;;;;;;4136119;34;20190;-63
2022/03/28 02:27:14;;;;;;;1.95;1.30;;;;;;;;;;4129712;34;20127;-61
2022/03/28 02:29:40;;;;;;;1.50;1.40;;;;;;;;;;4121011;34;20166;-60
2022/03/28 02:32:07;;;;;;;1.50;1.30;;;;;;;;;;4124386;34;20516;-60
2022/03/28 02:34:33;;;;;;;1.65;1.50;;;;;;;;;;4121221;34;20104;-60
2022/03/28 02:36:59;;;;;;;1.90;1.73;;;;;;;;;;4122256;34;20513;-60
2022/03/28 02:39:25;;;;;;;1.80;1.70;;;;;;;;;;4122252;34;20094;-60
2022/03/28 02:41:52;;;;;;;2.10;1.90;;;;;;;;;;4122449;34;20531;-63
2022/03/28 02:44:18;;;;;;;2.40;2.20;;;;;;;;;;4122485;34;20128;-62
2022/03/28 02:46:45;;;;;;;2.60;2.00;;;;;;;;;;4126851;34;20107;-63
2022/03/28 02:49:12;;;;;;;1.75;1.65;;;;;;;;;;4128546;34;20174;-63
2022/03/28 02:51:39;;;;;;;2.10;1.80;;;;;;;;;;4147312;34;20138;-63
2022/03/28 02:54:06;;;;;;;2.95;1.62;;;;;;;;;;4138136;34;20467;-63
2022/03/28 02:56:32;;;;;;;1.80;1.70;;;;;;;;;;4134607;34;20122;-63
2022/03/28 02:58:59;;;;;;;1.70;1.55;;;;;;;;;;4128935;34;20106;-63
2022/03/28 03:01:25;;;;;;;1.73;1.60;;;;;;;;;;4135574;34;20117;-63
2022/03/28 03:03:51;;;;;;;2.03;1.83;;;;;;;;;;4124545;34;20238;-62
2022/03/28 03:06:17;;;;;;;1.52;1.42;;;;;;;;;;4122820;34;20116;-62
2022/03/28 03:08:43;;;;;;;1.65;1.50;;;;;;;;;;4124165;34;20497;-61
2022/03/28 03:11:09;;;;;;;1.60;1.50;;;;;;;;;;4124467;34;20102;-62
2022/03/28 03:13:36;;;;;;;1.90;1.60;;;;;;;;;;4124163;34;20128;-62
2022/03/28 03:16:03;;;;;;;2.45;1.48;;;;;;;;;;4122799;34;20143;-62
2022/03/28 03:18:29;;;;;;;1.67;1.40;;;;;;;;;;4111506;34;20108;-61
2022/03/28 03:20:56;;;;;;;1.75;1.50;;;;;;;;;;4124345;34;20108;-62
2022/03/28 03:23:22;;;;;;;1.67;1.50;;;;;;;;;;4122572;34;20121;-64
2022/03/28 03:25:49;;;;;;;2.33;1.60;;;;;;;;;;4130464;34;20217;-62
2022/03/28 03:28:16;;;;;;;1.80;1.60;;;;;;;;;;4113091;34;20634;-62
2022/03/28 03:30:42;;;;;;;1.60;1.50;;;;;;;;;;4122567;34;20492;-61
2022/03/28 03:33:08;;;;;;;2.05;1.67;;;;;;;;;;4134021;34;20112;-62
2022/03/28 03:35:34;;;;;;;1.80;1.70;;;;;;;;;;4137418;34;20134;-61
2022/03/28 03:38:01;;;;;;;1.77;1.52;;;;;;;;;;4129444;34;20539;-62
2022/03/28 03:40:27;;;;;;;4.35;1.60;;;;;;;;;;4124408;34;20210;-62
2022/03/28 03:42:53;;;;;;;1.65;1.55;;;;;;;;;;4131473;34;20568;-62
2022/03/28 03:45:18;;;;;;;2.25;1.65;;;;;;;;;;4124589;34;20123;-62
2022/03/28 03:47:44;;;;;;;1.75;1.48;;;;;;;;;;4120590;34;20199;-63
2022/03/28 03:50:11;;;;;;;2.55;1.60;;;;;;;;;;4124276;34;20236;-61
2022/03/28 03:52:37;;;;;;;1.52;1.40;;;;;;;;;;4124148;34;20115;-61
2022/03/28 03:55:04;;;;;;;1.95;1.67;;;;;;;;;;4125660;34;20240;-62
2022/03/28 03:57:30;;;;;;;2.17;1.75;;;;;;;;;;4131914;34;20097;-62
2022/03/28 03:59:56;;;;;;;2.50;2.10;;;;;;;;;;4133177;34;20092;-64
2022/03/28 04:02:22;;;;;;;2.55;1.90;;;;;;;;;;4136599;34;20150;-62
2022/03/28 04:04:48;;;;;;;2.80;2.22;;;;;;;;;;4136139;34;20112;-62
2022/03/28 04:07:14;;;;;;;2.28;1.80;;;;;;;;;;4137684;34;20219;-63
2022/03/28 04:09:41;;;;;;;3.35;2.00;;;;;;;;;;4137496;34;20217;-63
2022/03/28 04:12:08;;;;;;;2.15;1.70;;;;;;;;;;4133572;34;20110;-63
2022/03/28 04:14:34;;;;;;;3.42;2.10;;;;;;;;;;4140483;34;20115;-62
2022/03/28 04:17:00;;;;;;;2.17;1.77;;;;;;;;;;4142269;34;20622;-62
2022/03/28 04:19:26;;;;;;;1.70;1.60;;;;;;;;;;4139026;34;20457;-62
2022/03/28 04:21:52;;;;;;;2.75;1.90;;;;;;;;;;4149332;34;20530;-62
2022/03/28 04:24:18;;;;;;;2.08;1.70;;;;;;;;;;4143503;34;20176;-61
2022/03/28 04:26:44;;;;;;;2.42;1.90;;;;;;;;;;4139317;34;20092;-62
2022/03/28 04:29:10;;;;;;;1.85;1.70;;;;;;;;;;4137231;34;20111;-62
2022/03/28 04:31:40;;;;;;;3.33;1.70;;;;;;;;;;4137234;34;20210;-61
2022/03/28 04:34:09;;;;;;;3.00;1.62;;;;;;;;;;4130060;34;20135;-60
2022/03/28 04:36:37;;;;;;;2.25;1.70;;;;;;;;;;4136294;34;20100;-61
2022/03/28 04:39:05;;;;;;;1.92;1.55;;;;;;;;;;4129350;34;20468;-61
2022/03/28 04:41:31;;;;;;;2.62;1.73;;;;;;;;;;4110784;34;20119;-60
2022/03/28 04:43:57;;;;;;;3.28;1.77;;;;;;;;;;4122963;34;20219;-61
2022/03/28 04:46:23;;;;;;;1.60;1.50;;;;;;;;;;4122848;34;20460;-60
2022/03/28 04:48:49;;;;;;;1.92;1.50;;;;;;;;;;4123015;34;20642;-60
2022/03/28 04:51:16;;;;;;;3.30;1.50;;;;;;;;;;4123042;34;20120;-61
2022/03/28 04:53:42;;;;;;;1.77;1.50;;;;;;;;;;4135295;34;20099;-60
2022/03/28 04:56:08;;;;;;;2.47;1.30;;;;;;;;;;4135063;34;20106;-60
2022/03/28 04:58:34;;;;;;;1.37;1.25;;;;;;;;;;4133600;34;20135;-59
2022/03/28 05:01:00;;;;;;;1.50;1.40;;;;;;;;;;4123051;34;20127;-59
2022/03/28 05:03:26;;;;;;;3.42;1.60;;;;;;;;;;4123226;34;20468;-60
2022/03/28 05:05:52;;;;;;;1.52;1.40;;;;;;;;;;4123231;34;20143;-59
2022/03/28 05:08:19;;;;;;;4.72;1.92;;;;;;;;;;4123053;34;20276;-59
2022/03/28 05:10:46;;;;;;;2.45;1.30;;;;;;;;;;4122499;34;20554;-58
2022/03/28 05:13:12;;;;;;;1.50;1.40;;;;;;;;;;4121867;34;20120;-59
2022/03/28 05:15:38;;;;;;;2.55;1.55;;;;;;;;;;4123059;34;20181;-60
2022/03/28 05:18:04;;;;;;;1.87;1.50;;;;;;;;;;4122954;34;20127;-60
2022/03/28 05:20:30;;;;;;;1.40;1.30;;;;;;;;;;4123443;34;20116;-60
2022/03/28 05:22:56;;;;;;;2.28;1.37;;;;;;;;;;4121895;34;20737;-59
2022/03/28 05:25:22;;;;;;;2.45;1.55;;;;;;;;;;4126473;34;20115;-60
2022/03/28 05:27:49;;;;;;;1.40;1.30;;;;;;;;;;4136911;34;20516;-58
2022/03/28 05:30:17;;;;;;;1.80;1.50;;;;;;;;;;4136610;34;20729;-59
2022/03/28 05:32:43;;;;;;;1.60;1.50;;;;;;;;;;4136665;34;20194;-57
2022/03/28 05:35:10;;;;;;;1.45;1.35;;;;;;;;;;4136777;34;20130;-58
2022/03/28 05:37:36;;;;;;;1.55;1.37;;;;;;;;;;4136767;34;20472;-59
2022/03/28 05:40:04;;;;;;;1.17;1.17;;;;;;;;;;4136529;34;20119;-58
2022/03/28 05:42:30;;;;;;;1.70;1.60;;;;;;;;;;4136762;34;20540;-59
2022/03/28 05:44:56;;;;;;;1.75;1.58;;;;;;;;;;4136673;34;20121;-59
2022/03/28 05:47:22;;;;;;;1.92;1.50;;;;;;;;;;4124526;34;20689;-59
2022/03/28 05:49:48;;;;;;;2.12;1.67;;;;;;;;;;4136552;34;20115;-59
2022/03/28 05:52:14;;;;;;;2.85;1.75;;;;;;;;;;4136610;34;20126;-58
2022/03/28 05:54:40;;;;;;;2.22;1.73;;;;;;;;;;4135849;34;20115;-58
2022/03/28 05:57:06;;;;;;;1.50;1.40;;;;;;;;;;4136423;34;20103;-57
2022/03/28 05:59:32;;;;;;;2.25;1.70;;;;;;;;;;4136370;34;20107;-60
2022/03/28 06:01:58;;;;;;;1.65;1.55;;;;;;;;;;4136412;34;20104;-58
2022/03/28 06:04:24;;;;;;;1.85;1.50;;;;;;;;;;4134999;34;20212;-58
2022/03/28 06:06:51;;;;;;;4.72;1.90;;;;;;;;;;4136643;34;20107;-60
2022/03/28 06:09:16;;;;;;;2.30;1.70;;;;;;;;;;4136264;34;20110;-58
2022/03/28 06:11:42;;;;;;;3.33;1.90;;;;;;;;;;4136243;34;20123;-58
2022/03/28 06:14:09;;;;;;;2.22;1.65;;;;;;;;;;4127256;34;20116;-58
2022/03/28 06:16:35;;;;;;;1.87;1.60;;;;;;;;;;4122818;34;20164;-60
2022/03/28 06:19:01;;;;;;;1.62;1.30;;;;;;;;;;4130732;34;20088;-57
2022/03/28 06:21:30;;;;;;;2.85;1.50;;;;;;;;;;4135628;34;20114;-60
2022/03/28 06:23:58;;;;;;;2.83;2.00;;;;;;;;;;4129508;34;20184;-59
2022/03/28 06:26:24;;;;;;;1.83;1.62;;;;;;;;;;4131985;34;20103;-60
2022/03/28 06:28:50;;;;;;;3.80;1.50;;;;;;;;;;4134596;34;20167;-58
2022/03/28 06:31:16;;;;;;;1.87;1.50;;;;;;;;;;4136315;34;20129;-57
2022/03/28 06:33:42;;;;;;;1.50;1.40;;;;;;;;;;4136361;34;20108;-58
2022/03/28 06:36:08;;;;;;;4.68;2.15;;;;;;;;;;4135936;34;20115;-58
2022/03/28 06:38:35;;;;;;;2.70;1.40;;;;;;;;;;4123878;34;20115;-59
2022/03/28 06:41:01;;;;;;;1.70;1.60;;;;;;;;;;4136059;34;20111;-59
2022/03/28 06:43:27;;;;;;;1.83;1.35;;;;;;;;;;4135995;34;20164;-58
2022/03/28 06:45:53;;;;;;;2.75;1.62;;;;;;;;;;4136196;34;20110;-58
2022/03/28 06:48:20;;;;;;;2.53;1.70;;;;;;;;;;4135820;34;20434;-58
2022/03/28 06:50:46;;;;;;;1.73;1.60;;;;;;;;;;4135746;34;20182;-59
2022/03/28 06:53:12;;;;;;;3.87;1.60;;;;;;;;;;4135990;34;20666;-59
2022/03/28 06:55:38;;;;;;;4.70;1.70;;;;;;;;;;4136344;34;20127;-59
2022/03/28 06:58:05;;;;;;;1.60;1.37;;;;;;;;;;4135949;34;20172;-58
2022/03/28 07:00:31;;;;;;;1.40;1.30;;;;;;;;;;4135868;34;20822;-57
2022/03/28 07:02:57;;;;;;;2.22;1.83;;;;;;;;;;4135793;34;20518;-56
2022/03/28 07:05:23;;;;;;;4.28;1.70;;;;;;;;;;4135614;34;20114;-58
2022/03/28 07:07:50;;;;;;;3.53;1.85;;;;;;;;;;4135789;34;20219;-58
2022/03/28 07:10:19;;;;;;;4.85;2.22;;;;;;;;;;4135585;34;20126;-58
2022/03/28 07:12:45;;;;;;;3.62;2.08;;;;;;;;;;4135734;34;20107;-59
2022/03/28 07:15:12;;;;;;;4.75;2.87;;;;;;;;;;4135726;34;20613;-58
2022/03/28 07:17:52;;;;;;;3.30;2.92;;;;;;;;;;4135515;34;20114;-59
2022/03/28 07:20:20;;;;;;;3.33;2.22;;;;;;;;;;4135496;34;20211;-59
2022/03/28 07:22:46;;;;;;;2.97;1.80;;;;;;;;;;4135411;34;20135;-58
2022/03/28 07:25:13;;;;;;;6.18;2.42;;;;;;;;;;4135486;34;20595;-59
2022/03/28 07:27:39;;;;;;;1.83;1.67;;;;;;;;;;4135618;34;20127;-58
2022/03/28 07:30:06;;;;;;;1.70;1.60;;;;;;;;;;4135413;34;20212;-58
2022/03/28 07:32:33;;;;;;;2.85;1.90;;;;;;;;;;4135299;34;20206;-58
2022/03/28 07:34:59;;;;;;;3.55;1.87;;;;;;;;;;4136911;34;20113;-59
2022/03/28 07:37:26;;;;;;;2.00;1.80;;;;;;;;;;4137685;34;20171;-58
2022/03/28 07:39:52;;;;;;;3.22;2.10;;;;;;;;;;4137544;34;20216;-58
2022/03/28 07:42:18;;;;;;;3.25;2.40;;;;;;;;;;4133900;34;20552;-58
2022/03/28 07:44:44;;;;;;;4.18;2.10;;;;;;;;;;4137426;34;20103;-58
2022/03/28 07:47:11;;;;;;;3.92;1.70;;;;;;;;;;4137251;34;20114;-58
2022/03/28 07:49:40;;;;;;;3.40;2.47;;;;;;;;;;4137269;34;20123;-59
2022/03/28 07:52:08;;;;;;;2.00;1.80;;;;;;;;;;4136513;34;20139;-59
2022/03/28 07:54:36;;;;;;;2.45;1.83;;;;;;;;;;4136781;34;20095;-58
2022/03/28 07:57:02;;;;;;;1.95;1.73;;;;;;;;;;4137081;34;20198;-59
2022/03/28 07:59:29;;;;;;;3.35;2.08;;;;;;;;;;4137570;34;20130;-58
2022/03/28 08:01:55;;;;;;;2.65;1.58;;;;;;;;;;4137163;34;20139;-59
2022/03/28 08:04:21;;;;;;;1.87;1.67;;;;;;;;;;4137051;34;20118;-59
2022/03/28 08:06:47;;;;;;;3.05;1.80;;;;;;;;;;4137008;34;20139;-60
2022/03/28 08:09:14;;;;;;;2.03;1.70;;;;;;;;;;4137236;34;20184;-59
2022/03/28 08:11:42;;;;;;;1.98;1.77;;;;;;;;;;4136774;34;20119;-59
2022/03/28 08:14:08;;;;;;;2.47;1.60;;;;;;;;;;4136909;34;20126;-59
2022/03/28 08:16:34;;;;;;;4.05;1.92;;;;;;;;;;4137343;34;20119;-58
2022/03/28 08:19:00;;;;;;;2.42;1.80;;;;;;;;;;4135937;34;20111;-58
2022/03/28 08:21:26;;;;;;;3.92;1.67;;;;;;;;;;4137029;34;20137;-59
2022/03/28 08:23:53;;;;;;;2.50;1.40;;;;;;;;;;4136693;34;20118;-58
2022/03/28 08:26:18;;;;;;;1.40;1.30;;;;;;;;;;4137268;34;20116;-58
2022/03/28 08:28:45;;;;;;;1.70;1.45;;;;;;;;;;4124377;34;20128;-58
2022/03/28 08:31:11;;;;;;;2.67;1.45;;;;;;;;;;4123343;34;20229;-58
2022/03/28 08:33:38;;;;;;;1.95;1.73;;;;;;;;;;4136701;34;20543;-58
2022/03/28 08:36:04;;;;;;;2.08;1.80;;;;;;;;;;4137010;34;20120;-59
2022/03/28 08:38:31;;;;;;;2.22;1.90;;;;;;;;;;4137408;34;20143;-58
2022/03/28 08:40:57;;;;;;;1.70;1.60;;;;;;;;;;4137082;34;20219;-60
2022/03/28 08:43:24;;;;;;;1.40;1.30;;;;;;;;;;4137041;34;20152;-59
2022/03/28 08:45:51;;;;;;;2.35;1.45;;;;;;;;;;4136223;34;20118;-60
2022/03/28 08:48:18;;;;;;;1.50;1.35;;;;;;;;;;4136877;34;20123;-60
2022/03/28 08:50:46;;;;;;;1.30;1.20;;;;;;;;;;4137298;34;20213;-63
2022/03/28 08:53:13;;;;;;;2.28;1.58;;;;;;;;;;4136915;34;20220;-60
2022/03/28 08:55:41;;;;;;;1.62;1.52;;;;;;;;;;4137039;34;20534;-62
2022/03/28 08:58:08;;;;;;;1.65;1.50;;;;;;;;;;4136962;34;20119;-60
2022/03/28 09:00:34;;;;;;;3.72;2.08;;;;;;;;;;4137017;34;20092;-58
2022/03/28 09:03:00;;;;;;;1.83;1.58;;;;;;;;;;4136798;34;20107;-61
2022/03/28 09:05:30;;;;;;;2.05;1.70;;;;;;;;;;4137155;34;20111;-61
2022/03/28 09:07:58;;;;;;;1.77;1.60;;;;;;;;;;4136813;34;20110;-61
2022/03/28 09:10:27;;;;;;;1.45;1.35;;;;;;;;;;4136757;34;20139;-61
2022/03/28 09:13:01;;;;;;;2.20;1.70;;;;;;;;;;4136751;34;20192;-60
2022/03/28 09:15:47;;;;;;;1.55;1.37;;;;;;;;;;4136734;34;20117;-60
2022/03/28 09:18:30;;;;;;;2.58;1.50;;;;;;;;;;4136739;34;20188;-61
2022/03/28 09:21:01;;;;;;;1.75;1.50;;;;;;;;;;4136752;34;20141;-58
2022/03/28 09:23:30;;;;;;;5.07;1.60;;;;;;;;;;4136597;34;20119;-57
2022/03/28 09:25:57;;;;;;;2.20;1.50;;;;;;;;;;4136903;34;20182;-59
2022/03/28 09:28:25;;;;;;;2.90;1.50;;;;;;;;;;4136790;34;20122;-58
2022/03/28 09:30:51;;;;;;;1.90;1.60;;;;;;;;;;4136694;34;20150;-58
2022/03/28 09:33:18;;;;;;;3.62;1.62;;;;;;;;;;4136573;34;20520;-58
2022/03/28 09:35:48;;;;;;;2.37;1.50;;;;;;;;;;4136755;34;20508;-60
2022/03/28 09:38:18;;;;;;;3.00;1.42;;;;;;;;;;4136471;34;20250;-60
2022/03/28 09:40:46;;;;;;;2.85;1.40;;;;;;;;;;4136606;34;20214;-58
2022/03/28 09:43:20;;;;;;;1.67;1.40;;;;;;;;;;4136540;34;20127;-59
2022/03/28 09:45:52;;;;;;;1.50;1.40;;;;;;;;;;4136945;34;20594;-60
2022/03/28 09:48:22;;;;;;;2.35;1.40;;;;;;;;;;4123841;34;20637;-59
2022/03/28 09:51:00;;;;;;;1.70;1.40;;;;;;;;;;4136527;34;20190;-59
2022/03/28 09:53:31;;;;;;;1.40;1.30;;;;;;;;;;4136422;34;20127;-59
2022/03/28 09:56:00;;;;;;;2.37;1.40;;;;;;;;;;4136463;34;20531;-60
2022/03/28 09:58:38;;;;;;;1.80;1.70;;;;;;;;;;4136176;34;20098;-59
2022/03/28 10:01:06;;;;;;;3.22;1.62;;;;;;;;;;4136665;34;20108;-59
2022/03/28 10:03:33;;;;;;;1.87;1.65;;;;;;;;;;4136616;34;20112;-59
2022/03/28 10:06:03;;;;;;;1.90;1.80;;;;;;;;;;4136447;34;20138;-59
2022/03/28 10:08:29;;;;;;;2.55;1.60;;;;;;;;;;4136512;34;20126;-59
2022/03/28 10:10:57;;;;;;;3.75;2.00;;;;;;;;;;4136305;34;20978;-60
2022/03/28 10:13:23;;;;;;;2.22;1.60;;;;;;;;;;4123992;34;20099;-58
2022/03/28 10:15:50;;;;;;;1.60;1.50;;;;;;;;;;4136510;34;20258;-59
2022/03/28 10:18:16;;;;;;;1.40;1.30;;;;;;;;;;4136247;34;20508;-58
2022/03/28 10:20:43;;;;;;;1.60;1.50;;;;;;;;;;4136252;34;20192;-60
2022/03/28 10:23:12;;;;;;;2.42;1.48;;;;;;;;;;4123608;34;20183;-59
2022/03/28 10:25:39;;;;;;;1.70;1.60;;;;;;;;;;4136366;34;20103;-59
2022/03/28 10:28:05;;;;;;;1.70;1.60;;;;;;;;;;4123827;34;20183;-59
2022/03/28 10:30:33;;;;;;;2.08;1.52;;;;;;;;;;4136294;34;20119;-59
2022/03/28 10:33:22;;;;;;;1.48;1.37;;;;;;;;;;4136275;34;20133;-59
2022/03/28 10:36:25;;;;;;;1.48;1.30;;;;;;;;;;4136150;34;20202;-59
2022/03/28 10:38:51;;;;;;;1.92;1.42;;;;;;;;;;4132697;34;20120;-59
2022/03/28 10:41:19;;;;;;;1.50;1.30;;;;;;;;;;4136078;34;20088;-59
2022/03/28 10:43:45;;;;;;;2.05;1.30;;;;;;;;;;4135911;34;20119;-59
2022/03/28 10:46:12;;;;;;;2.30;1.90;;;;;;;;;;4136239;34;20107;-59
2022/03/28 10:48:54;;;;;;;3.30;1.73;;;;;;;;;;4135921;34;20622;-58
2022/03/28 10:51:24;;;;;;;3.20;1.70;;;;;;;;;;4135958;34;20542;-59
2022/03/28 10:54:05;;;;;;;3.75;1.25;;;;;;;;;;4135848;34;20107;-58
2022/03/28 10:56:32;;;;;;;1.70;1.52;;;;;;;;;;4136008;34;20141;-59
2022/03/28 10:59:01;;;;;;;1.83;1.37;;;;;;;;;;4135818;34;20143;-59
2022/03/28 11:01:30;;;;;;;2.53;1.30;;;;;;;;;;4135888;34;20709;-59
2022/03/28 11:04:07;;;;;;;2.12;1.60;;;;;;;;;;4135681;34;20107;-58
2022/03/28 11:06:45;;;;;;;1.50;1.40;;;;;;;;;;4123358;34;20119;-58
2022/03/28 11:09:12;;;;;;;1.80;1.40;;;;;;;;;;4136420;34;20126;-59
2022/03/28 11:11:55;;;;;;;2.53;1.65;;;;;;;;;;4137818;34;20141;-59
2022/03/28 11:14:49;;;;;;;1.40;1.30;;;;;;;;;;4137755;34;20104;-59
2022/03/28 11:17:22;;;;;;;1.75;1.40;;;;;;;;;;4137609;34;20095;-59
2022/03/28 11:20:07;;;;;;;1.83;1.40;;;;;;;;;;4137707;34;20126;-59
2022/03/28 11:22:41;;;;;;;5.75;1.60;;;;;;;;;;4137621;34;20124;-59
2022/03/28 11:25:42;;;;;;;1.52;1.40;;;;;;;;;;4137505;34;20118;-59
2022/03/28 11:28:22;;;;;;;2.33;1.52;;;;;;;;;;4136327;34;20128;-59
2022/03/28 11:31:03;;;;;;;1.40;1.30;;;;;;;;;;4136372;34;20115;-60
2022/03/28 11:33:31;;;;;;;2.12;1.50;;;;;;;;;;4137722;34;20581;-59
2022/03/28 11:36:05;;;;;;;2.78;1.55;;;;;;;;;;4137530;34;20110;-59
2022/03/28 11:38:41;;;;;;;1.90;1.60;;;;;;;;;;4137569;34;20313;-59
2022/03/28 11:41:09;;;;;;;2.85;1.67;;;;;;;;;;4137125;34;20096;-59
2022/03/28 11:43:36;;;;;;;2.90;1.85;;;;;;;;;;4137035;34;20126;-59
2022/03/28 11:46:03;;;;;;;3.62;1.60;;;;;;;;;;4137642;34;20119;-59
2022/03/28 11:48:29;;;;;;;1.90;1.50;;;;;;;;;;4137733;34;20107;-59
2022/03/28 11:50:56;;;;;;;3.53;1.80;;;;;;;;;;4137628;34;20500;-59
2022/03/28 11:53:23;;;;;;;2.22;1.98;;;;;;;;;;4137547;34;20126;-60
2022/03/28 11:55:52;;;;;;;4.22;2.22;;;;;;;;;;4137417;34;20127;-59
2022/03/28 11:58:28;;;;;;;3.80;1.87;;;;;;;;;;4137589;34;20104;-59
2022/03/28 12:01:07;;;;;;;3.00;2.15;;;;;;;;;;4137724;34;20107;-60
2022/03/28 12:03:34;;;;;;;2.35;1.70;;;;;;;;;;4137611;34;20111;-59
2022/03/28 12:06:01;;;;;;;2.17;1.70;;;;;;;;;;4137340;34;20544;-59
2022/03/28 12:08:28;;;;;;;2.25;1.65;;;;;;;;;;4137554;34;20095;-59
2022/03/28 12:10:54;;;;;;;1.77;1.67;;;;;;;;;;4137265;34;20198;-60
2022/03/28 12:13:22;;;;;;;1.98;1.60;;;;;;;;;;4137007;34;20119;-59
2022/03/28 12:15:50;;;;;;;2.50;1.67;;;;;;;;;;4137183;34;20119;-58
2022/03/28 12:18:19;;;;;;;2.33;1.48;;;;;;;;;;4137085;34;20108;-58
2022/03/28 12:20:48;;;;;;;1.37;1.27;;;;;;;;;;4124308;34;20112;-59
2022/03/28 12:23:15;;;;;;;2.47;1.40;;;;;;;;;;4137097;34;20552;-59
2022/03/28 12:25:52;;;;;;;2.72;1.45;;;;;;;;;;4136956;34;20115;-59
2022/03/28 12:28:23;;;;;;;2.17;1.62;;;;;;;;;;4137092;34;20620;-59
2022/03/28 12:30:52;;;;;;;1.67;1.20;;;;;;;;;;4137050;34;20433;-57
2022/03/28 12:33:26;;;;;;;1.67;1.37;;;;;;;;;;4137001;34;20099;-59
2022/03/28 12:36:03;;;;;;;1.90;1.80;;;;;;;;;;4137167;34;20210;-60
2022/03/28 12:38:38;;;;;;;2.65;1.92;;;;;;;;;;4137119;34;20131;-59
2022/03/28 12:41:12;;;;;;;2.25;1.50;;;;;;;;;;4136925;34;20135;-59
2022/03/28 12:43:40;;;;;;;1.15;1.12;;;;;;;;;;4136984;34;20138;-59
2022/03/28 12:46:13;;;;;;;2.50;1.30;;;;;;;;;;4137009;34;20522;-60
2022/03/28 12:48:42;;;;;;;1.58;1.40;;;;;;;;;;4137017;34;20091;-60
2022/03/28 12:51:09;;;;;;;1.75;1.17;;;;;;;;;;4135511;34;20115;-60
2022/03/28 12:53:37;;;;;;;1.37;1.27;;;;;;;;;;4124456;34;20481;-60
2022/03/28 12:56:16;;;;;;;3.70;1.50;;;;;;;;;;4136697;34;20192;-59
2022/03/28 12:58:53;;;;;;;2.67;1.77;;;;;;;;;;4136903;34;20509;-58
2022/03/28 13:01:28;;;;;;;2.87;1.90;;;;;;;;;;4124729;34;20119;-60
2022/03/28 13:04:18;;;;;;;2.90;2.03;;;;;;;;;;4136797;34;20544;-60
2022/03/28 13:06:46;;;;;;;2.10;1.90;;;;;;;;;;4124387;34;20196;-60
2022/03/28 13:09:18;;;;;;;2.15;1.90;;;;;;;;;;4136838;34;20543;-58
2022/03/28 13:11:46;;;;;;;3.35;2.00;;;;;;;;;;4132225;34;20195;-61
2022/03/28 13:14:32;;;;;;;2.70;1.90;;;;;;;;;;4110476;34;20200;-59
2022/03/28 13:17:10;;;;;;;4.22;1.70;;;;;;;;;;4109885;34;20199;-59
2022/03/28 13:19:37;;;;;;;3.15;1.50;;;;;;;;;;4110996;34;20776;-63
2022/03/28 13:22:05;;;;;;;3.28;1.75;;;;;;;;;;4123132;34;20112;-60
2022/03/28 13:24:33;;;;;;;3.45;1.85;;;;;;;;;;4123239;34;20110;-58
2022/03/28 13:29:52;;;;;;;7.28;2.20;;;;;;;;;;4136452;34;20552;-58
2022/03/28 13:32:18;;;;;;;2.78;1.73;;;;;;;;;;4136120;34;20119;-59
2022/03/28 13:34:45;;;;;;;3.85;1.92;;;;;;;;;;4136464;34;20099;-59
2022/03/28 13:37:11;;;;;;;1.55;1.30;;;;;;;;;;4135528;34;20245;-59
2022/03/28 13:39:38;;;;;;;2.33;1.65;;;;;;;;;;4136621;34;20132;-58
2022/03/28 13:42:05;;;;;;;3.92;1.98;;;;;;;;;;4124183;34;20118;-59
2022/03/28 13:44:32;;;;;;;5.57;2.12;;;;;;;;;;4136791;34;20450;-59
2022/03/28 13:46:58;;;;;;;3.85;1.50;;;;;;;;;;4136555;34;20490;-59
2022/03/28 13:49:24;;;;;;;3.05;1.70;;;;;;;;;;4136516;34;20111;-59
2022/03/28 13:51:50;;;;;;;3.33;1.60;;;;;;;;;;4136340;34;20115;-58
2022/03/28 13:54:16;;;;;;;2.25;1.65;;;;;;;;;;4136397;34;20158;-57
2022/03/28 13:56:42;;;;;;;3.33;1.45;;;;;;;;;;4136282;34;20207;-58
2022/03/28 13:59:11;;;;;;;3.12;1.83;;;;;;;;;;4136287;34;20104;-59
2022/03/28 14:01:38;;;;;;;2.28;1.70;;;;;;;;;;4136333;34;20287;-58
2022/03/28 14:04:08;;;;;;;4.47;1.98;;;;;;;;;;4136203;34;20115;-58
2022/03/28 14:06:35;;;;;;;2.80;1.67;;;;;;;;;;4135703;34;20131;-58
2022/03/28 14:09:01;;;;;;;2.17;1.62;;;;;;;;;;4132106;34;20137;-59
2022/03/28 14:11:28;;;;;;;2.08;1.62;;;;;;;;;;4132090;34;20555;-58
2022/03/28 14:13:54;;;;;;;2.60;1.85;;;;;;;;;;4132005;34;20114;-58
2022/03/28 14:16:20;;;;;;;1.55;1.40;;;;;;;;;;4132012;34;20225;-58
2022/03/28 14:18:47;;;;;;;3.40;1.87;;;;;;;;;;4132354;34;20461;-58
2022/03/28 14:21:17;;;;;;;2.10;1.90;;;;;;;;;;4132167;34;20133;-58
2022/03/28 14:23:44;;;;;;;4.55;2.33;;;;;;;;;;4123736;34;20138;-59
2022/03/28 14:26:13;;;;;;;1.70;1.60;;;;;;;;;;4136227;34;20672;-59
2022/03/28 14:28:40;;;;;;;3.42;1.80;;;;;;;;;;4136022;34;20120;-58
2022/03/28 14:31:06;;;;;;;3.45;1.55;;;;;;;;;;4135870;34;20122;-58
2022/03/28 14:33:33;;;;;;;4.90;1.90;;;;;;;;;;4136092;34;20206;-59
2022/03/28 14:36:00;;;;;;;2.62;1.92;;;;;;;;;;4135944;34;20531;-59
2022/03/28 14:38:27;;;;;;;5.03;2.00;;;;;;;;;;4135934;34;20527;-60
2022/03/28 14:40:53;;;;;;;1.92;1.73;;;;;;;;;;4135920;34;20123;-59
2022/03/28 14:43:19;;;;;;;2.47;1.90;;;;;;;;;;4136845;34;20577;-59
2022/03/28 14:48:32;;;;;;;3.67;1.70;;;;;;;;;;4137934;34;20205;-60
2022/03/28 14:50:58;;;;;;;3.03;1.70;;;;;;;;;;4137774;34;20219;-60
2022/03/28 14:53:24;;;;;;;5.20;1.90;;;;;;;;;;4137893;34;20549;-63
2022/03/28 14:55:50;;;;;;;2.97;2.15;;;;;;;;;;4136480;34;20119;-59
2022/03/28 14:58:16;;;;;;;3.10;1.95;;;;;;;;;;4137887;34;20312;-60
2022/03/28 15:00:42;;;;;;;3.65;2.10;;;;;;;;;;4136459;34;20198;-59
2022/03/28 15:03:09;;;;;;;3.67;1.70;;;;;;;;;;4137854;34;20137;-60
2022/03/28 15:05:36;;;;;;;4.32;1.75;;;;;;;;;;4125390;34;20147;-62
2022/03/28 15:08:04;;;;;;;8.60;5.22;;;;;;;;;;4125372;34;20106;-61
2022/03/28 15:10:32;;;;;;;2.72;1.90;;;;;;;;;;4125563;34;20123;-63
2022/03/28 15:12:59;;;;;;;3.28;1.90;;;;;;;;;;4125547;34;20110;-60
2022/03/28 15:15:25;;;;;;;2.42;1.87;;;;;;;;;;4129465;34;20107;-60